sensor_id;sensor_type;location;lat;lon;timestamp;P1;durP1;ratioP1;P2;durP2;ratioP2
23720;SDS011;42950;52.134;5.578;2023-07-13T00:00:27;11.13;;;2.45;;
23720;SDS011;42950;52.134;5.578;2023-07-13T00:02:53;13.05;;;2.72;;
23720;SDS011;42950;52.134;5.578;2023-07-13T00:05:22;15.40;;;2.85;;
23720;SDS011;42950;52.134;5.578;2023-07-13T00:07:49;8.13;;;2.00;;
23720;SDS011;42950;52.134;5.578;2023-07-13T00:10:16;8.38;;;2.22;;
23720;SDS011;42950;52.134;5.578;2023-07-13T00:12:42;8.35;;;2.17;;
23720;SDS011;42950;52.134;5.578;2023-07-13T00:15:12;12.10;;;2.42;;
23720;SDS011;42950;52.134;5.578;2023-07-13T00:17:42;9.68;;;2.63;;
23720;SDS011;42950;52.134;5.578;2023-07-13T00:20:10;8.80;;;2.25;;
23720;SDS011;42950;52.134;5.578;2023-07-13T00:22:37;13.30;;;3.17;;
23720;SDS011;42950;52.134;5.578;2023-07-13T00:25:03;10.40;;;2.72;;
23720;SDS011;42950;52.134;5.578;2023-07-13T00:27:29;8.98;;;2.20;;
23720;SDS011;42950;52.134;5.578;2023-07-13T00:29:58;9.45;;;2.50;;
23720;SDS011;42950;52.134;5.578;2023-07-13T00:32:24;6.75;;;2.22;;
23720;SDS011;42950;52.134;5.578;2023-07-13T00:34:50;9.98;;;2.83;;
23720;SDS011;42950;52.134;5.578;2023-07-13T00:37:17;9.40;;;2.50;;
23720;SDS011;42950;52.134;5.578;2023-07-13T00:39:43;15.30;;;3.15;;
23720;SDS011;42950;52.134;5.578;2023-07-13T00:42:08;11.18;;;2.70;;
23720;SDS011;42950;52.134;5.578;2023-07-13T00:44:34;12.18;;;2.50;;
23720;SDS011;42950;52.134;5.578;2023-07-13T00:47:00;7.47;;;2.38;;
23720;SDS011;42950;52.134;5.578;2023-07-13T00:49:27;7.95;;;2.72;;
23720;SDS011;42950;52.134;5.578;2023-07-13T00:51:56;12.80;;;2.85;;
23720;SDS011;42950;52.134;5.578;2023-07-13T00:54:28;11.57;;;2.42;;
23720;SDS011;42950;52.134;5.578;2023-07-13T00:56:57;9.70;;;2.22;;
23720;SDS011;42950;52.134;5.578;2023-07-13T00:59:27;9.52;;;2.70;;
23720;SDS011;42950;52.134;5.578;2023-07-13T01:01:54;6.75;;;2.53;;
23720;SDS011;42950;52.134;5.578;2023-07-13T01:04:25;8.07;;;2.10;;
23720;SDS011;42950;52.134;5.578;2023-07-13T01:06:52;8.07;;;2.67;;
23720;SDS011;42950;52.134;5.578;2023-07-13T01:09:19;10.35;;;2.65;;
23720;SDS011;42950;52.134;5.578;2023-07-13T01:11:45;8.40;;;2.42;;
23720;SDS011;42950;52.134;5.578;2023-07-13T01:14:11;9.70;;;2.47;;
23720;SDS011;42950;52.134;5.578;2023-07-13T01:16:37;10.00;;;2.38;;
23720;SDS011;42950;52.134;5.578;2023-07-13T01:19:07;9.25;;;2.40;;
23720;SDS011;42950;52.134;5.578;2023-07-13T01:21:56;8.45;;;2.33;;
23720;SDS011;42950;52.134;5.578;2023-07-13T01:24:22;5.63;;;1.85;;
23720;SDS011;42950;52.134;5.578;2023-07-13T01:26:48;10.07;;;2.47;;
23720;SDS011;42950;52.134;5.578;2023-07-13T01:29:13;8.88;;;2.10;;
23720;SDS011;42950;52.134;5.578;2023-07-13T01:31:39;7.57;;;2.50;;
23720;SDS011;42950;52.134;5.578;2023-07-13T01:34:05;11.75;;;2.83;;
23720;SDS011;42950;52.134;5.578;2023-07-13T01:36:31;9.98;;;2.78;;
23720;SDS011;42950;52.134;5.578;2023-07-13T01:38:56;14.02;;;2.72;;
23720;SDS011;42950;52.134;5.578;2023-07-13T01:41:22;8.38;;;2.30;;
23720;SDS011;42950;52.134;5.578;2023-07-13T01:43:48;7.60;;;2.22;;
23720;SDS011;42950;52.134;5.578;2023-07-13T01:46:13;8.52;;;2.50;;
23720;SDS011;42950;52.134;5.578;2023-07-13T01:48:39;8.88;;;2.47;;
23720;SDS011;42950;52.134;5.578;2023-07-13T01:51:05;7.20;;;2.22;;
23720;SDS011;42950;52.134;5.578;2023-07-13T01:53:30;6.80;;;2.55;;
23720;SDS011;42950;52.134;5.578;2023-07-13T01:55:56;10.10;;;2.78;;
23720;SDS011;42950;52.134;5.578;2023-07-13T01:58:21;6.40;;;2.38;;
23720;SDS011;42950;52.134;5.578;2023-07-13T02:00:51;7.20;;;2.33;;
23720;SDS011;42950;52.134;5.578;2023-07-13T02:03:16;7.68;;;2.30;;
23720;SDS011;42950;52.134;5.578;2023-07-13T02:05:43;9.55;;;2.40;;
23720;SDS011;42950;52.134;5.578;2023-07-13T02:08:10;8.27;;;2.50;;
23720;SDS011;42950;52.134;5.578;2023-07-13T02:10:36;8.18;;;2.90;;
23720;SDS011;42950;52.134;5.578;2023-07-13T02:13:05;5.50;;;2.15;;
23720;SDS011;42950;52.134;5.578;2023-07-13T02:15:31;8.50;;;2.60;;
23720;SDS011;42950;52.134;5.578;2023-07-13T02:17:56;10.55;;;2.97;;
23720;SDS011;42950;52.134;5.578;2023-07-13T02:20:24;9.35;;;2.30;;
23720;SDS011;42950;52.134;5.578;2023-07-13T02:22:53;6.28;;;2.70;;
23720;SDS011;42950;52.134;5.578;2023-07-13T02:25:18;6.57;;;2.13;;
23720;SDS011;42950;52.134;5.578;2023-07-13T02:27:44;8.05;;;2.38;;
23720;SDS011;42950;52.134;5.578;2023-07-13T02:30:10;9.02;;;2.40;;
23720;SDS011;42950;52.134;5.578;2023-07-13T02:32:36;10.27;;;2.97;;
23720;SDS011;42950;52.134;5.578;2023-07-13T02:35:02;8.35;;;2.45;;
23720;SDS011;42950;52.134;5.578;2023-07-13T02:37:28;8.10;;;2.40;;
23720;SDS011;42950;52.134;5.578;2023-07-13T02:39:55;9.45;;;2.70;;
23720;SDS011;42950;52.134;5.578;2023-07-13T02:42:20;8.25;;;2.30;;
23720;SDS011;42950;52.134;5.578;2023-07-13T02:44:46;8.82;;;2.78;;
23720;SDS011;42950;52.134;5.578;2023-07-13T02:47:12;8.50;;;2.83;;
23720;SDS011;42950;52.134;5.578;2023-07-13T02:49:38;11.27;;;3.00;;
23720;SDS011;42950;52.134;5.578;2023-07-13T02:52:04;11.25;;;2.83;;
23720;SDS011;42950;52.134;5.578;2023-07-13T02:54:31;8.05;;;2.65;;
23720;SDS011;42950;52.134;5.578;2023-07-13T02:56:56;9.13;;;2.85;;
23720;SDS011;42950;52.134;5.578;2023-07-13T02:59:23;7.95;;;2.70;;
23720;SDS011;42950;52.134;5.578;2023-07-13T03:01:49;10.60;;;2.80;;
23720;SDS011;42950;52.134;5.578;2023-07-13T03:04:15;10.25;;;3.28;;
23720;SDS011;42950;52.134;5.578;2023-07-13T03:06:45;11.93;;;3.42;;
23720;SDS011;42950;52.134;5.578;2023-07-13T03:09:12;10.45;;;3.10;;
23720;SDS011;42950;52.134;5.578;2023-07-13T03:11:38;9.88;;;3.25;;
23720;SDS011;42950;52.134;5.578;2023-07-13T03:14:03;9.68;;;3.03;;
23720;SDS011;42950;52.134;5.578;2023-07-13T03:16:29;9.73;;;3.05;;
23720;SDS011;42950;52.134;5.578;2023-07-13T03:18:55;8.05;;;3.25;;
23720;SDS011;42950;52.134;5.578;2023-07-13T03:21:20;15.20;;;4.25;;
23720;SDS011;42950;52.134;5.578;2023-07-13T03:23:46;10.18;;;3.22;;
23720;SDS011;42950;52.134;5.578;2023-07-13T03:26:16;10.52;;;2.90;;
23720;SDS011;42950;52.134;5.578;2023-07-13T03:28:44;12.45;;;3.25;;
23720;SDS011;42950;52.134;5.578;2023-07-13T03:31:11;9.95;;;3.85;;
23720;SDS011;42950;52.134;5.578;2023-07-13T03:33:39;14.32;;;4.00;;
23720;SDS011;42950;52.134;5.578;2023-07-13T03:36:06;13.85;;;3.97;;
23720;SDS011;42950;52.134;5.578;2023-07-13T03:38:34;14.60;;;3.95;;
23720;SDS011;42950;52.134;5.578;2023-07-13T03:41:00;13.10;;;3.97;;
23720;SDS011;42950;52.134;5.578;2023-07-13T03:43:26;15.25;;;3.97;;
23720;SDS011;42950;52.134;5.578;2023-07-13T03:45:52;15.52;;;3.85;;
23720;SDS011;42950;52.134;5.578;2023-07-13T03:48:17;14.35;;;3.60;;
23720;SDS011;42950;52.134;5.578;2023-07-13T03:50:43;13.38;;;4.22;;
23720;SDS011;42950;52.134;5.578;2023-07-13T03:53:09;10.25;;;3.80;;
23720;SDS011;42950;52.134;5.578;2023-07-13T03:55:34;12.95;;;3.90;;
23720;SDS011;42950;52.134;5.578;2023-07-13T03:58:24;11.52;;;3.70;;
23720;SDS011;42950;52.134;5.578;2023-07-13T04:00:49;13.13;;;4.10;;
23720;SDS011;42950;52.134;5.578;2023-07-13T04:03:15;14.95;;;4.13;;
23720;SDS011;42950;52.134;5.578;2023-07-13T04:05:41;9.40;;;3.47;;
23720;SDS011;42950;52.134;5.578;2023-07-13T04:08:07;12.85;;;3.90;;
23720;SDS011;42950;52.134;5.578;2023-07-13T04:10:32;12.35;;;4.03;;
23720;SDS011;42950;52.134;5.578;2023-07-13T04:12:58;17.85;;;4.45;;
23720;SDS011;42950;52.134;5.578;2023-07-13T04:15:24;14.43;;;4.15;;
23720;SDS011;42950;52.134;5.578;2023-07-13T04:17:50;13.57;;;4.40;;
23720;SDS011;42950;52.134;5.578;2023-07-13T04:20:15;19.08;;;4.53;;
23720;SDS011;42950;52.134;5.578;2023-07-13T04:22:41;12.35;;;4.10;;
23720;SDS011;42950;52.134;5.578;2023-07-13T04:25:07;14.93;;;4.50;;
23720;SDS011;42950;52.134;5.578;2023-07-13T04:27:32;12.73;;;4.45;;
23720;SDS011;42950;52.134;5.578;2023-07-13T04:29:59;14.00;;;4.38;;
23720;SDS011;42950;52.134;5.578;2023-07-13T04:32:25;15.45;;;4.20;;
23720;SDS011;42950;52.134;5.578;2023-07-13T04:34:50;19.75;;;4.47;;
23720;SDS011;42950;52.134;5.578;2023-07-13T04:37:18;16.63;;;4.97;;
23720;SDS011;42950;52.134;5.578;2023-07-13T04:39:45;19.13;;;5.22;;
23720;SDS011;42950;52.134;5.578;2023-07-13T04:42:11;17.80;;;5.18;;
23720;SDS011;42950;52.134;5.578;2023-07-13T04:44:37;14.55;;;4.22;;
23720;SDS011;42950;52.134;5.578;2023-07-13T04:47:03;16.70;;;5.25;;
23720;SDS011;42950;52.134;5.578;2023-07-13T04:49:30;14.02;;;4.65;;
23720;SDS011;42950;52.134;5.578;2023-07-13T04:51:55;17.05;;;4.70;;
23720;SDS011;42950;52.134;5.578;2023-07-13T04:54:21;17.98;;;5.35;;
23720;SDS011;42950;52.134;5.578;2023-07-13T04:56:47;12.73;;;4.35;;
23720;SDS011;42950;52.134;5.578;2023-07-13T04:59:14;15.57;;;4.72;;
23720;SDS011;42950;52.134;5.578;2023-07-13T05:01:39;16.73;;;5.05;;
23720;SDS011;42950;52.134;5.578;2023-07-13T05:04:05;21.52;;;5.28;;
23720;SDS011;42950;52.134;5.578;2023-07-13T05:06:31;18.50;;;5.55;;
23720;SDS011;42950;52.134;5.578;2023-07-13T05:08:57;17.58;;;5.30;;
23720;SDS011;42950;52.134;5.578;2023-07-13T05:11:23;15.95;;;4.68;;
23720;SDS011;42950;52.134;5.578;2023-07-13T05:13:50;18.05;;;5.30;;
23720;SDS011;42950;52.134;5.578;2023-07-13T05:16:16;12.65;;;4.70;;
23720;SDS011;42950;52.134;5.578;2023-07-13T05:18:42;15.57;;;4.97;;
23720;SDS011;42950;52.134;5.578;2023-07-13T05:21:08;20.90;;;5.35;;
23720;SDS011;42950;52.134;5.578;2023-07-13T05:23:36;18.58;;;5.55;;
23720;SDS011;42950;52.134;5.578;2023-07-13T05:26:02;19.98;;;5.90;;
23720;SDS011;42950;52.134;5.578;2023-07-13T05:28:30;20.35;;;5.85;;
23720;SDS011;42950;52.134;5.578;2023-07-13T05:30:56;21.15;;;6.03;;
23720;SDS011;42950;52.134;5.578;2023-07-13T05:33:23;20.05;;;5.80;;
23720;SDS011;42950;52.134;5.578;2023-07-13T05:35:49;19.90;;;6.45;;
23720;SDS011;42950;52.134;5.578;2023-07-13T05:38:15;17.85;;;5.70;;
23720;SDS011;42950;52.134;5.578;2023-07-13T05:40:44;22.92;;;6.57;;
23720;SDS011;42950;52.134;5.578;2023-07-13T05:43:10;20.90;;;6.35;;
23720;SDS011;42950;52.134;5.578;2023-07-13T05:45:36;23.15;;;6.57;;
23720;SDS011;42950;52.134;5.578;2023-07-13T05:48:02;23.63;;;6.97;;
23720;SDS011;42950;52.134;5.578;2023-07-13T05:50:29;15.43;;;6.10;;
23720;SDS011;42950;52.134;5.578;2023-07-13T05:52:56;19.70;;;7.07;;
23720;SDS011;42950;52.134;5.578;2023-07-13T05:55:22;22.67;;;7.00;;
23720;SDS011;42950;52.134;5.578;2023-07-13T05:57:48;22.83;;;6.80;;
23720;SDS011;42950;52.134;5.578;2023-07-13T06:00:13;26.95;;;8.50;;
23720;SDS011;42950;52.134;5.578;2023-07-13T06:02:40;21.60;;;8.23;;
23720;SDS011;42950;52.134;5.578;2023-07-13T06:05:05;28.67;;;9.32;;
23720;SDS011;42950;52.134;5.578;2023-07-13T06:07:31;25.83;;;8.88;;
23720;SDS011;42950;52.134;5.578;2023-07-13T06:09:57;18.67;;;8.35;;
23720;SDS011;42950;52.134;5.578;2023-07-13T06:12:24;21.92;;;9.35;;
23720;SDS011;42950;52.134;5.578;2023-07-13T06:14:51;26.92;;;9.60;;
23720;SDS011;42950;52.134;5.578;2023-07-13T06:17:16;26.27;;;9.35;;
23720;SDS011;42950;52.134;5.578;2023-07-13T06:19:43;24.95;;;9.18;;
23720;SDS011;42950;52.134;5.578;2023-07-13T06:22:10;23.05;;;8.88;;
23720;SDS011;42950;52.134;5.578;2023-07-13T06:24:36;25.52;;;9.52;;
23720;SDS011;42950;52.134;5.578;2023-07-13T06:27:01;26.10;;;10.02;;
23720;SDS011;42950;52.134;5.578;2023-07-13T06:29:27;23.58;;;9.07;;
23720;SDS011;42950;52.134;5.578;2023-07-13T06:31:54;20.10;;;8.35;;
23720;SDS011;42950;52.134;5.578;2023-07-13T06:34:20;22.35;;;9.23;;
23720;SDS011;42950;52.134;5.578;2023-07-13T06:36:45;21.13;;;9.98;;
23720;SDS011;42950;52.134;5.578;2023-07-13T06:39:11;22.90;;;9.68;;
23720;SDS011;42950;52.134;5.578;2023-07-13T06:41:37;22.48;;;9.75;;
23720;SDS011;42950;52.134;5.578;2023-07-13T06:44:03;26.05;;;10.88;;
23720;SDS011;42950;52.134;5.578;2023-07-13T06:46:29;26.48;;;10.85;;
23720;SDS011;42950;52.134;5.578;2023-07-13T06:48:56;23.20;;;10.80;;
23720;SDS011;42950;52.134;5.578;2023-07-13T06:51:22;25.85;;;11.52;;
23720;SDS011;42950;52.134;5.578;2023-07-13T06:53:50;22.33;;;10.60;;
23720;SDS011;42950;52.134;5.578;2023-07-13T06:56:16;20.73;;;10.82;;
23720;SDS011;42950;52.134;5.578;2023-07-13T06:58:41;22.75;;;11.43;;
23720;SDS011;42950;52.134;5.578;2023-07-13T07:01:07;25.83;;;12.00;;
23720;SDS011;42950;52.134;5.578;2023-07-13T07:03:36;24.05;;;11.27;;
23720;SDS011;42950;52.134;5.578;2023-07-13T07:06:06;24.73;;;11.00;;
23720;SDS011;42950;52.134;5.578;2023-07-13T07:08:43;27.13;;;10.95;;
23720;SDS011;42950;52.134;5.578;2023-07-13T07:11:14;24.75;;;11.90;;
23720;SDS011;42950;52.134;5.578;2023-07-13T07:13:42;25.85;;;10.65;;
23720;SDS011;42950;52.134;5.578;2023-07-13T07:16:09;30.08;;;12.20;;
23720;SDS011;42950;52.134;5.578;2023-07-13T07:18:35;23.48;;;11.45;;
23720;SDS011;42950;52.134;5.578;2023-07-13T07:21:01;21.33;;;11.32;;
23720;SDS011;42950;52.134;5.578;2023-07-13T07:23:27;28.30;;;12.63;;
23720;SDS011;42950;52.134;5.578;2023-07-13T07:25:53;22.60;;;11.10;;
23720;SDS011;42950;52.134;5.578;2023-07-13T07:28:18;24.25;;;12.05;;
23720;SDS011;42950;52.134;5.578;2023-07-13T07:30:45;25.77;;;11.23;;
23720;SDS011;42950;52.134;5.578;2023-07-13T07:33:11;28.27;;;12.00;;
23720;SDS011;42950;52.134;5.578;2023-07-13T07:35:37;21.73;;;10.98;;
23720;SDS011;42950;52.134;5.578;2023-07-13T07:38:03;27.10;;;11.60;;
23720;SDS011;42950;52.134;5.578;2023-07-13T07:40:29;25.35;;;11.45;;
23720;SDS011;42950;52.134;5.578;2023-07-13T07:42:54;21.67;;;11.10;;
23720;SDS011;42950;52.134;5.578;2023-07-13T07:45:21;22.67;;;11.18;;
23720;SDS011;42950;52.134;5.578;2023-07-13T07:47:47;26.92;;;11.75;;
23720;SDS011;42950;52.134;5.578;2023-07-13T07:50:13;23.77;;;11.85;;
23720;SDS011;42950;52.134;5.578;2023-07-13T07:52:39;31.73;;;13.95;;
23720;SDS011;42950;52.134;5.578;2023-07-13T07:55:05;28.08;;;12.70;;
23720;SDS011;42950;52.134;5.578;2023-07-13T07:57:32;27.65;;;12.52;;
23720;SDS011;42950;52.134;5.578;2023-07-13T07:59:58;24.52;;;12.63;;
23720;SDS011;42950;52.134;5.578;2023-07-13T08:02:25;26.70;;;11.32;;
23720;SDS011;42950;52.134;5.578;2023-07-13T08:04:51;25.15;;;11.60;;
23720;SDS011;42950;52.134;5.578;2023-07-13T08:07:17;23.42;;;11.52;;
23720;SDS011;42950;52.134;5.578;2023-07-13T08:09:43;23.88;;;11.07;;
23720;SDS011;42950;52.134;5.578;2023-07-13T08:12:09;23.05;;;10.80;;
23720;SDS011;42950;52.134;5.578;2023-07-13T08:14:35;20.05;;;9.82;;
23720;SDS011;42950;52.134;5.578;2023-07-13T08:17:00;20.55;;;8.77;;
23720;SDS011;42950;52.134;5.578;2023-07-13T08:19:26;22.20;;;9.30;;
23720;SDS011;42950;52.134;5.578;2023-07-13T08:21:52;18.40;;;8.23;;
23720;SDS011;42950;52.134;5.578;2023-07-13T08:24:17;21.25;;;8.88;;
23720;SDS011;42950;52.134;5.578;2023-07-13T08:26:44;16.23;;;7.75;;
23720;SDS011;42950;52.134;5.578;2023-07-13T08:29:11;17.52;;;7.38;;
23720;SDS011;42950;52.134;5.578;2023-07-13T08:31:37;17.35;;;7.80;;
23720;SDS011;42950;52.134;5.578;2023-07-13T08:34:03;16.08;;;8.07;;
23720;SDS011;42950;52.134;5.578;2023-07-13T08:36:29;17.25;;;8.82;;
23720;SDS011;42950;52.134;5.578;2023-07-13T08:38:56;14.88;;;6.63;;
23720;SDS011;42950;52.134;5.578;2023-07-13T08:41:21;18.92;;;6.55;;
23720;SDS011;42950;52.134;5.578;2023-07-13T08:43:49;18.67;;;7.05;;
23720;SDS011;42950;52.134;5.578;2023-07-13T08:46:21;15.10;;;6.32;;
23720;SDS011;42950;52.134;5.578;2023-07-13T08:49:00;17.48;;;6.28;;
23720;SDS011;42950;52.134;5.578;2023-07-13T08:54:38;17.45;;;6.07;;
23720;SDS011;42950;52.134;5.578;2023-07-13T08:57:17;17.60;;;6.00;;
23720;SDS011;42950;52.134;5.578;2023-07-13T08:59:46;13.65;;;5.55;;
23720;SDS011;42950;52.134;5.578;2023-07-13T09:10:58;5.60;;;2.00;;
23720;SDS011;42950;52.134;5.578;2023-07-13T09:13:43;7.32;;;2.17;;
23720;SDS011;42950;52.134;5.578;2023-07-13T09:16:35;4.25;;;1.88;;
23720;SDS011;42950;52.134;5.578;2023-07-13T09:19:05;6.28;;;2.33;;
23720;SDS011;42950;52.134;5.578;2023-07-13T09:21:37;6.68;;;2.33;;
23720;SDS011;42950;52.134;5.578;2023-07-13T09:24:28;4.15;;;2.42;;
23720;SDS011;42950;52.134;5.578;2023-07-13T09:27:01;7.32;;;2.97;;
23720;SDS011;42950;52.134;5.578;2023-07-13T09:29:32;9.30;;;2.75;;
23720;SDS011;42950;52.134;5.578;2023-07-13T09:32:03;6.35;;;2.83;;
23720;SDS011;42950;52.134;5.578;2023-07-13T09:34:34;7.85;;;3.10;;
23720;SDS011;42950;52.134;5.578;2023-07-13T09:37:01;12.93;;;3.35;;
23720;SDS011;42950;52.134;5.578;2023-07-13T09:39:31;8.52;;;2.97;;
23720;SDS011;42950;52.134;5.578;2023-07-13T09:44:50;6.82;;;3.28;;
23720;SDS011;42950;52.134;5.578;2023-07-13T09:47:17;9.32;;;3.17;;
23720;SDS011;42950;52.134;5.578;2023-07-13T09:49:45;7.20;;;2.67;;
23720;SDS011;42950;52.134;5.578;2023-07-13T09:52:12;5.93;;;2.83;;
23720;SDS011;42950;52.134;5.578;2023-07-13T09:54:43;10.68;;;3.33;;
23720;SDS011;42950;52.134;5.578;2023-07-13T09:57:13;9.73;;;2.88;;
23720;SDS011;42950;52.134;5.578;2023-07-13T09:59:48;5.88;;;2.60;;
23720;SDS011;42950;52.134;5.578;2023-07-13T10:04:56;6.65;;;2.50;;
23720;SDS011;42950;52.134;5.578;2023-07-13T10:07:23;8.02;;;2.70;;
23720;SDS011;42950;52.134;5.578;2023-07-13T10:09:53;9.30;;;3.05;;
23720;SDS011;42950;52.134;5.578;2023-07-13T10:12:19;9.75;;;2.90;;
23720;SDS011;42950;52.134;5.578;2023-07-13T10:14:48;11.43;;;3.90;;
23720;SDS011;42950;52.134;5.578;2023-07-13T10:17:27;5.47;;;2.58;;
23720;SDS011;42950;52.134;5.578;2023-07-13T10:20:00;4.88;;;2.20;;
23720;SDS011;42950;52.134;5.578;2023-07-13T10:22:50;7.15;;;2.30;;
23720;SDS011;42950;52.134;5.578;2023-07-13T10:25:35;5.65;;;2.17;;
23720;SDS011;42950;52.134;5.578;2023-07-13T10:30:50;5.65;;;2.45;;
23720;SDS011;42950;52.134;5.578;2023-07-13T10:33:18;5.65;;;3.03;;
23720;SDS011;42950;52.134;5.578;2023-07-13T10:35:46;8.20;;;3.35;;
23720;SDS011;42950;52.134;5.578;2023-07-13T10:38:21;7.13;;;3.15;;
23720;SDS011;42950;52.134;5.578;2023-07-13T10:41:00;5.97;;;2.90;;
23720;SDS011;42950;52.134;5.578;2023-07-13T10:43:51;4.88;;;2.83;;
23720;SDS011;42950;52.134;5.578;2023-07-13T10:46:20;7.03;;;3.15;;
23720;SDS011;42950;52.134;5.578;2023-07-13T10:48:51;7.93;;;3.22;;
23720;SDS011;42950;52.134;5.578;2023-07-13T10:51:21;6.00;;;3.00;;
23720;SDS011;42950;52.134;5.578;2023-07-13T10:54:10;6.93;;;3.13;;
23720;SDS011;42950;52.134;5.578;2023-07-13T10:56:43;7.15;;;3.10;;
23720;SDS011;42950;52.134;5.578;2023-07-13T10:59:23;7.13;;;2.80;;
23720;SDS011;42950;52.134;5.578;2023-07-13T11:04:47;5.88;;;2.40;;
23720;SDS011;42950;52.134;5.578;2023-07-13T11:09:55;3.53;;;2.28;;
23720;SDS011;42950;52.134;5.578;2023-07-13T11:12:48;5.03;;;2.35;;
23720;SDS011;42950;52.134;5.578;2023-07-13T11:15:26;4.60;;;2.45;;
23720;SDS011;42950;52.134;5.578;2023-07-13T11:17:54;6.05;;;2.72;;
23720;SDS011;42950;52.134;5.578;2023-07-13T11:20:33;4.53;;;1.95;;
23720;SDS011;42950;52.134;5.578;2023-07-13T11:25:38;3.25;;;1.70;;
23720;SDS011;42950;52.134;5.578;2023-07-13T11:35:53;7.63;;;2.30;;
23720;SDS011;42950;52.134;5.578;2023-07-13T11:41:50;4.50;;;2.20;;
23720;SDS011;42950;52.134;5.578;2023-07-13T11:44:10;8.38;;;3.83;;
23720;SDS011;42950;52.134;5.578;2023-07-13T11:46:55;5.35;;;2.20;;
23720;SDS011;42950;52.134;5.578;2023-07-13T11:49:25;5.40;;;2.67;;
23720;SDS011;42950;52.134;5.578;2023-07-13T11:51:54;4.32;;;2.50;;
23720;SDS011;42950;52.134;5.578;2023-07-13T11:56:52;10.43;;;2.90;;
23720;SDS011;42950;52.134;5.578;2023-07-13T11:59:25;8.57;;;3.40;;
23720;SDS011;42950;52.134;5.578;2023-07-13T12:01:52;6.57;;;2.80;;
23720;SDS011;42950;52.134;5.578;2023-07-13T12:04:23;7.53;;;3.08;;
23720;SDS011;42950;52.134;5.578;2023-07-13T12:06:58;2.92;;;2.10;;
23720;SDS011;42950;52.134;5.578;2023-07-13T12:09:30;7.63;;;2.85;;
23720;SDS011;42950;52.134;5.578;2023-07-13T12:11:59;8.55;;;3.83;;
23720;SDS011;42950;52.134;5.578;2023-07-13T12:14:26;9.75;;;3.33;;
23720;SDS011;42950;52.134;5.578;2023-07-13T12:16:52;7.13;;;3.40;;
23720;SDS011;42950;52.134;5.578;2023-07-13T12:19:23;6.55;;;2.50;;
23720;SDS011;42950;52.134;5.578;2023-07-13T12:21:52;8.27;;;2.83;;
23720;SDS011;42950;52.134;5.578;2023-07-13T12:24:20;7.57;;;3.25;;
23720;SDS011;42950;52.134;5.578;2023-07-13T12:27:06;7.65;;;3.20;;
23720;SDS011;42950;52.134;5.578;2023-07-13T12:30:04;8.48;;;3.10;;
23720;SDS011;42950;52.134;5.578;2023-07-13T12:33:23;10.15;;;3.58;;
23720;SDS011;42950;52.134;5.578;2023-07-13T12:35:42;7.18;;;3.15;;
23720;SDS011;42950;52.134;5.578;2023-07-13T12:38:15;8.35;;;2.88;;
23720;SDS011;42950;52.134;5.578;2023-07-13T12:40:42;7.18;;;3.10;;
23720;SDS011;42950;52.134;5.578;2023-07-13T12:43:13;8.15;;;3.10;;
23720;SDS011;42950;52.134;5.578;2023-07-13T12:45:54;9.27;;;3.30;;
23720;SDS011;42950;52.134;5.578;2023-07-13T12:48:20;7.80;;;3.10;;
23720;SDS011;42950;52.134;5.578;2023-07-13T12:50:47;5.88;;;2.85;;
23720;SDS011;42950;52.134;5.578;2023-07-13T12:53:16;7.57;;;3.20;;
23720;SDS011;42950;52.134;5.578;2023-07-13T12:55:55;8.18;;;3.40;;
23720;SDS011;42950;52.134;5.578;2023-07-13T12:58:27;15.63;;;4.07;;
23720;SDS011;42950;52.134;5.578;2023-07-13T13:00:56;10.07;;;3.63;;
23720;SDS011;42950;52.134;5.578;2023-07-13T13:03:26;12.75;;;3.40;;
23720;SDS011;42950;52.134;5.578;2023-07-13T13:06:03;8.27;;;3.42;;
23720;SDS011;42950;52.134;5.578;2023-07-13T13:08:46;8.90;;;2.80;;
23720;SDS011;42950;52.134;5.578;2023-07-13T13:11:18;10.05;;;2.70;;
23720;SDS011;42950;52.134;5.578;2023-07-13T13:13:45;4.75;;;2.58;;
23720;SDS011;42950;52.134;5.578;2023-07-13T13:18:48;7.57;;;2.38;;
23720;SDS011;42950;52.134;5.578;2023-07-13T13:21:15;3.85;;;2.22;;
23720;SDS011;42950;52.134;5.578;2023-07-13T13:23:41;5.72;;;2.40;;
23720;SDS011;42950;52.134;5.578;2023-07-13T13:26:10;7.70;;;2.67;;
23720;SDS011;42950;52.134;5.578;2023-07-13T13:28:36;5.80;;;2.75;;
23720;SDS011;42950;52.134;5.578;2023-07-13T13:31:02;7.40;;;2.40;;
23720;SDS011;42950;52.134;5.578;2023-07-13T13:33:28;4.88;;;2.30;;
23720;SDS011;42950;52.134;5.578;2023-07-13T13:35:56;6.00;;;2.50;;
23720;SDS011;42950;52.134;5.578;2023-07-13T13:38:26;8.80;;;2.58;;
23720;SDS011;42950;52.134;5.578;2023-07-13T13:40:53;7.20;;;2.50;;
23720;SDS011;42950;52.134;5.578;2023-07-13T13:43:23;5.97;;;2.85;;
23720;SDS011;42950;52.134;5.578;2023-07-13T13:45:54;7.43;;;2.30;;
23720;SDS011;42950;52.134;5.578;2023-07-13T13:48:26;4.72;;;2.42;;
23720;SDS011;42950;52.134;5.578;2023-07-13T13:50:59;5.97;;;2.90;;
23720;SDS011;42950;52.134;5.578;2023-07-13T13:53:26;5.65;;;2.47;;
23720;SDS011;42950;52.134;5.578;2023-07-13T13:55:52;4.10;;;2.38;;
23720;SDS011;42950;52.134;5.578;2023-07-13T13:58:20;5.55;;;2.35;;
23720;SDS011;42950;52.134;5.578;2023-07-13T14:00:47;8.88;;;2.45;;
23720;SDS011;42950;52.134;5.578;2023-07-13T14:03:14;4.35;;;2.40;;
23720;SDS011;42950;52.134;5.578;2023-07-13T14:05:42;5.10;;;2.30;;
23720;SDS011;42950;52.134;5.578;2023-07-13T14:08:11;7.38;;;2.45;;
23720;SDS011;42950;52.134;5.578;2023-07-13T14:10:39;4.18;;;2.50;;
23720;SDS011;42950;52.134;5.578;2023-07-13T14:13:07;6.25;;;2.50;;
23720;SDS011;42950;52.134;5.578;2023-07-13T14:15:43;3.60;;;2.22;;
23720;SDS011;42950;52.134;5.578;2023-07-13T14:18:09;8.88;;;2.50;;
23720;SDS011;42950;52.134;5.578;2023-07-13T14:20:35;5.63;;;2.17;;
23720;SDS011;42950;52.134;5.578;2023-07-13T14:23:01;5.15;;;2.35;;
23720;SDS011;42950;52.134;5.578;2023-07-13T14:25:26;5.78;;;2.50;;
23720;SDS011;42950;52.134;5.578;2023-07-13T14:27:53;3.75;;;2.50;;
23720;SDS011;42950;52.134;5.578;2023-07-13T14:30:24;4.13;;;2.65;;
23720;SDS011;42950;52.134;5.578;2023-07-13T14:32:50;5.90;;;2.75;;
23720;SDS011;42950;52.134;5.578;2023-07-13T14:35:17;4.95;;;2.67;;
23720;SDS011;42950;52.134;5.578;2023-07-13T14:37:45;6.00;;;2.15;;
23720;SDS011;42950;52.134;5.578;2023-07-13T14:42:55;6.47;;;2.55;;
23720;SDS011;42950;52.134;5.578;2023-07-13T14:45:21;5.00;;;2.35;;
23720;SDS011;42950;52.134;5.578;2023-07-13T14:47:48;4.63;;;2.38;;
23720;SDS011;42950;52.134;5.578;2023-07-13T14:50:14;5.82;;;2.70;;
23720;SDS011;42950;52.134;5.578;2023-07-13T14:52:41;6.20;;;2.50;;
23720;SDS011;42950;52.134;5.578;2023-07-13T14:55:09;4.43;;;2.35;;
23720;SDS011;42950;52.134;5.578;2023-07-13T14:57:39;3.63;;;2.20;;
23720;SDS011;42950;52.134;5.578;2023-07-13T15:00:12;5.18;;;2.40;;
23720;SDS011;42950;52.134;5.578;2023-07-13T15:02:38;4.57;;;2.30;;
23720;SDS011;42950;52.134;5.578;2023-07-13T15:05:12;3.88;;;2.20;;
23720;SDS011;42950;52.134;5.578;2023-07-13T15:07:39;3.67;;;1.95;;
23720;SDS011;42950;52.134;5.578;2023-07-13T15:12:53;5.88;;;2.75;;
23720;SDS011;42950;52.134;5.578;2023-07-13T15:15:22;7.53;;;2.30;;
23720;SDS011;42950;52.134;5.578;2023-07-13T15:17:48;6.00;;;2.20;;
23720;SDS011;42950;52.134;5.578;2023-07-13T15:22:58;6.65;;;2.30;;
23720;SDS011;42950;52.134;5.578;2023-07-13T15:25:25;5.05;;;1.83;;
23720;SDS011;42950;52.134;5.578;2023-07-13T15:27:53;6.07;;;2.38;;
23720;SDS011;42950;52.134;5.578;2023-07-13T15:30:20;4.30;;;1.83;;
23720;SDS011;42950;52.134;5.578;2023-07-13T15:32:46;3.92;;;1.80;;
23720;SDS011;42950;52.134;5.578;2023-07-13T15:35:20;4.35;;;1.92;;
23720;SDS011;42950;52.134;5.578;2023-07-13T15:37:47;9.35;;;2.92;;
23720;SDS011;42950;52.134;5.578;2023-07-13T15:40:15;4.30;;;2.08;;